Time;durP1;ratioP1;P1;durP2;ratioP2;P2;SDS_P1;SDS_P2;PMS_P1;PMS_P2;Temp;Humidity;BMP_temperature;BMP_pressure;BME280_temperature;BME280_humidity;BME280_pressure;Samples;Min_cycle;Max_cycle;Signal;HPM_P1;HPM_P2
2023/06/17 00:02:01;;;;;;;12.07;5.85;;;;;;;16.61;47.10;92540.88;4758997;30;20052;-78
2023/06/17 00:04:27;;;;;;;11.07;5.75;;;;;;;16.63;46.67;92532.63;4747156;30;20040;-78
2023/06/17 00:06:53;;;;;;;9.80;5.80;;;;;;;16.62;47.14;92531.09;4761845;30;20047;-79
2023/06/17 00:09:20;;;;;;;12.00;5.60;;;;;;;16.59;46.95;92531.72;4745299;30;20047;-80
2023/06/17 00:11:47;;;;;;;10.80;6.05;;;;;;;16.63;45.78;92532.63;4761195;30;20031;-78
2023/06/17 00:14:14;;;;;;;11.57;6.20;;;;;;;16.61;46.42;92530.31;4760377;30;20449;-78
2023/06/17 00:16:43;;;;;;;11.55;6.18;;;;;;;16.66;44.80;92532.00;4746152;30;20640;-80
2023/06/17 00:19:15;;;;;;;13.43;6.20;;;;;;;16.70;44.44;92532.91;4760095;30;20150;-79
2023/06/17 00:21:52;;;;;;;10.90;6.30;;;;;;;16.77;44.15;92538.44;4747660;30;20047;-78
2023/06/17 00:24:19;;;;;;;11.82;5.90;;;;;;;16.84;43.79;92535.31;4758703;30;20056;-80
2023/06/17 00:26:46;;;;;;;12.50;5.85;;;;;;;16.93;42.80;92538.69;4760505;30;20518;-79
2023/06/17 00:29:11;;;;;;;10.95;6.20;;;;;;;17.05;42.26;92537.94;4743484;30;20031;-79
2023/06/17 00:31:37;;;;;;;13.02;6.43;;;;;;;17.17;41.90;92539.88;4766281;30;20563;-79
2023/06/17 00:34:03;;;;;;;10.75;5.65;;;;;;;17.22;41.65;92540.41;4754143;30;20036;-79
2023/06/17 00:36:29;;;;;;;13.18;6.60;;;;;;;17.28;41.50;92546.28;4743308;30;20046;-80
2023/06/17 00:38:57;;;;;;;13.50;6.20;;;;;;;17.32;41.33;92541.91;4739481;30;20132;-80
2023/06/17 00:41:23;;;;;;;11.75;6.40;;;;;;;17.31;42.09;92544.88;4757779;30;20399;-79
2023/06/17 00:43:49;;;;;;;13.63;6.32;;;;;;;17.28;42.34;92533.84;4737938;30;20028;-79
2023/06/17 00:46:27;;;;;;;13.15;5.90;;;;;;;17.43;40.94;92537.75;4758642;30;20161;-78
2023/06/17 00:48:53;;;;;;;11.52;5.85;;;;;;;17.38;41.42;92540.59;4754041;30;20500;-80
2023/06/17 00:51:18;;;;;;;11.18;6.32;;;;;;;17.31;42.72;92542.22;4763852;30;20100;-80
2023/06/17 00:53:45;;;;;;;11.63;6.25;;;;;;;17.29;43.04;92542.53;4742516;30;20047;-79
2023/06/17 00:56:10;;;;;;;12.95;6.38;;;;;;;17.17;43.65;92535.34;4765849;30;20128;-79
2023/06/17 00:58:36;;;;;;;10.45;6.32;;;;;;;17.07;45.15;92530.47;4731284;30;20134;-79
2023/06/17 01:01:02;;;;;;;14.52;6.75;;;;;;;16.96;46.85;92539.91;4760958;30;20043;-80
2023/06/17 01:03:29;;;;;;;13.23;6.18;;;;;;;16.82;47.40;92535.66;4750033;30;20511;-78
2023/06/17 01:05:59;;;;;;;12.45;5.97;;;;;;;16.70;47.74;92529.47;4712314;30;20121;-79
2023/06/17 01:08:34;;;;;;;11.13;6.22;;;;;;;16.60;47.41;92533.28;4762343;30;20123;-77
2023/06/17 01:11:04;;;;;;;13.70;6.38;;;;;;;16.51;48.31;92535.22;4756316;30;20043;-79
2023/06/17 01:13:31;;;;;;;13.55;6.10;;;;;;;16.44;49.06;92525.94;4747839;30;20040;-78
2023/06/17 01:15:59;;;;;;;13.88;5.95;;;;;;;16.39;49.25;92522.69;4759135;30;20127;-79
2023/06/17 01:18:26;;;;;;;10.82;5.68;;;;;;;16.32;49.60;92520.56;4741233;30;20155;-79
2023/06/17 01:20:53;;;;;;;10.02;5.57;;;;;;;16.25;50.39;92522.94;4740645;30;20503;-79
2023/06/17 01:23:31;;;;;;;14.45;6.15;;;;;;;16.20;51.31;92531.06;4758705;30;20048;-80
2023/06/17 01:25:57;;;;;;;10.93;5.97;;;;;;;16.11;51.36;92522.41;4741680;30;20032;-80
2023/06/17 01:28:24;;;;;;;11.80;6.28;;;;;;;16.04;51.48;92525.53;4742412;30;20119;-79
2023/06/17 01:30:54;;;;;;;11.48;6.43;;;;;;;15.97;52.30;92528.69;4745951;30;20130;-79
2023/06/17 01:33:21;;;;;;;15.93;6.50;;;;;;;15.91;52.85;92524.66;4749867;30;20032;-79
2023/06/17 01:35:53;;;;;;;11.48;5.63;;;;;;;15.95;51.09;92525.59;4743973;30;20048;-79
2023/06/17 01:38:24;;;;;;;12.52;5.68;;;;;;;16.08;46.94;92529.09;4727521;30;20122;-78
2023/06/17 01:41:00;;;;;;;11.95;6.32;;;;;;;16.29;46.03;92526.50;4770086;30;20388;-79
2023/06/17 01:43:30;;;;;;;10.85;6.10;;;;;;;16.58;44.95;92530.97;4751980;30;20051;-79
2023/06/17 01:45:56;;;;;;;10.13;5.85;;;;;;;16.65;44.18;92519.88;4741384;30;20032;-80
2023/06/17 01:48:22;;;;;;;12.32;5.90;;;;;;;16.79;44.22;92519.63;4746043;30;20028;-79
2023/06/17 01:50:47;;;;;;;10.60;6.18;;;;;;;16.85;44.75;92529.69;4740248;30;20048;-80
2023/06/17 01:53:13;;;;;;;13.20;6.35;;;;;;;16.83;44.29;92521.31;4755200;30;20148;-80
2023/06/17 01:55:39;;;;;;;13.13;6.15;;;;;;;16.84;44.29;92522.88;4728167;30;20066;-80
2023/06/17 01:58:05;;;;;;;12.63;5.82;;;;;;;16.90;44.09;92525.31;4747758;30;20040;-79
2023/06/17 02:00:30;;;;;;;11.18;6.60;;;;;;;16.94;44.40;92527.00;4745412;30;20059;-79
2023/06/17 02:03:00;;;;;;;15.18;6.03;;;;;;;16.87;45.40;92523.34;4742433;30;20044;-78
2023/06/17 02:05:27;;;;;;;11.02;5.60;;;;;;;16.83;44.86;92516.03;4759503;30;20499;-80
2023/06/17 02:07:56;;;;;;;10.23;5.80;;;;;;;16.80;45.30;92516.69;4763041;30;20043;-79
2023/06/17 02:10:22;;;;;;;11.98;5.82;;;;;;;16.79;45.19;92520.41;4745567;30;20040;-80
2023/06/17 02:12:47;;;;;;;10.43;5.90;;;;;;;16.78;45.31;92521.50;4757875;30;20051;-79
2023/06/17 02:15:13;;;;;;;9.35;5.40;;;;;;;16.82;45.35;92519.78;4747644;30;20054;-78
2023/06/17 02:17:40;;;;;;;10.48;5.35;;;;;;;16.80;45.94;92521.97;4743335;30;20052;-79
2023/06/17 02:20:06;;;;;;;14.30;6.22;;;;;;;16.80;45.14;92516.69;4744330;30;20197;-79
2023/06/17 02:22:32;;;;;;;9.43;5.68;;;;;;;16.77;45.62;92527.84;4739956;30;20132;-79
2023/06/17 02:24:58;;;;;;;11.60;6.25;;;;;;;16.72;46.78;92527.28;4738898;30;20039;-79
2023/06/17 02:27:23;;;;;;;10.55;5.75;;;;;;;16.65;46.95;92519.88;4730220;30;20416;-79
2023/06/17 02:29:49;;;;;;;11.10;5.85;;;;;;;16.57;47.27;92518.06;4727264;30;20673;-79
2023/06/17 02:32:16;;;;;;;11.05;5.60;;;;;;;16.51;48.30;92519.38;4711043;30;20037;-78
2023/06/17 02:34:43;;;;;;;10.73;5.93;;;;;;;16.41;49.20;92521.31;4723869;30;20051;-79
2023/06/17 02:37:10;;;;;;;10.30;5.80;;;;;;;16.32;49.58;92523.19;4725019;30;20045;-78
2023/06/17 02:39:35;;;;;;;12.18;5.72;;;;;;;16.25;50.54;92528.22;4721032;30;20048;-79
2023/06/17 02:42:01;;;;;;;10.50;6.10;;;;;;;16.17;51.05;92526.41;4737059;30;20043;-79
2023/06/17 02:44:28;;;;;;;14.73;5.63;;;;;;;16.10;51.96;92526.91;4721723;30;20135;-80
2023/06/17 02:46:53;;;;;;;10.55;6.20;;;;;;;16.03;53.51;92532.69;4739605;30;20128;-80
2023/06/17 02:49:19;;;;;;;10.88;5.68;;;;;;;15.98;52.25;92540.00;4723289;30;20139;-80
2023/06/17 02:51:45;;;;;;;13.38;6.20;;;;;;;15.90;52.72;92535.56;4721868;30;20036;-79
2023/06/17 02:54:11;;;;;;;10.77;6.35;;;;;;;15.76;53.64;92546.31;4720399;30;21602;-79
2023/06/17 02:56:37;;;;;;;11.82;6.45;;;;;;;15.60;55.45;92543.38;4727795;30;20067;-80
2023/06/17 02:59:02;;;;;;;16.48;7.05;;;;;;;15.56;57.18;92545.88;4722503;30;20131;-79
2023/06/17 03:01:28;;;;;;;10.40;6.25;;;;;;;15.44;57.12;92553.66;4734283;30;20102;-79
2023/06/17 03:03:55;;;;;;;11.15;6.03;;;;;;;15.33;57.12;92552.44;4744815;30;20153;-79
2023/06/17 03:06:23;;;;;;;10.82;6.05;;;;;;;15.28;55.47;92557.88;4724866;30;20037;-79
2023/06/17 03:08:50;;;;;;;11.07;5.90;;;;;;;15.24;57.12;92556.97;4728869;30;20045;-78
2023/06/17 03:11:15;;;;;;;11.93;5.90;;;;;;;15.18;56.91;92556.38;4744705;30;20074;-79
2023/06/17 03:13:42;;;;;;;15.80;6.63;;;;;;;15.15;57.19;92560.41;4725895;30;20458;-79
2023/06/17 03:16:16;;;;;;;10.88;6.05;;;;;;;15.12;57.46;92558.38;4730047;30;20511;-79
2023/06/17 03:18:43;;;;;;;11.32;6.22;;;;;;;15.09;58.16;92559.00;4720603;30;20120;-79
2023/06/17 03:21:08;;;;;;;12.25;6.15;;;;;;;15.06;58.51;92561.47;4728843;30;20136;-78
2023/06/17 03:23:34;;;;;;;14.60;5.97;;;;;;;15.03;58.72;92556.84;4737907;30;20170;-79
2023/06/17 03:26:00;;;;;;;9.95;6.00;;;;;;;15.02;59.02;92574.53;4738122;30;20507;-79
2023/06/17 03:28:26;;;;;;;11.18;6.10;;;;;;;14.98;58.90;92565.69;4733855;30;20086;-78
2023/06/17 03:30:52;;;;;;;12.63;7.10;;;;;;;14.97;59.38;92564.91;4732863;30;20064;-78
2023/06/17 03:33:17;;;;;;;13.13;6.53;;;;;;;14.98;59.97;92568.31;4723860;30;20131;-79
2023/06/17 03:35:43;;;;;;;11.95;6.00;;;;;;;14.96;60.37;92567.84;4721521;30;20598;-80
2023/06/17 03:38:09;;;;;;;10.70;6.57;;;;;;;14.95;60.74;92568.91;4724832;30;20094;-80
2023/06/17 03:40:36;;;;;;;12.02;6.18;;;;;;;14.91;61.63;92568.00;4731549;30;20040;-80
2023/06/17 03:43:02;;;;;;;12.00;6.10;;;;;;;14.83;62.73;92571.41;4738486;30;20056;-79
2023/06/17 03:45:30;;;;;;;9.73;5.97;;;;;;;14.78;63.71;92564.44;4708215;30;20048;-79
2023/06/17 03:47:58;;;;;;;10.85;5.95;;;;;;;14.69;64.01;92564.44;4715453;30;20416;-80
2023/06/17 03:50:24;;;;;;;11.30;6.28;;;;;;;14.65;64.45;92568.00;4730770;30;20045;-78
2023/06/17 03:52:50;;;;;;;12.52;6.10;;;;;;;14.60;64.48;92566.28;4728295;30;20046;-78
2023/06/17 03:55:17;;;;;;;13.77;6.43;;;;;;;14.56;65.08;92567.97;4727458;30;20039;-79
2023/06/17 03:57:43;;;;;;;10.05;5.78;;;;;;;14.51;65.12;92565.47;4727613;30;20140;-79
2023/06/17 04:00:11;;;;;;;11.43;6.03;;;;;;;14.47;65.19;92559.25;4721331;30;20538;-78
2023/06/17 04:02:45;;;;;;;10.20;6.07;;;;;;;14.47;65.65;92575.06;4739760;30;20088;-78
2023/06/17 04:05:17;;;;;;;13.13;6.43;;;;;;;14.48;65.84;92577.41;4711437;30;20430;-78
2023/06/17 04:07:46;;;;;;;13.77;6.13;;;;;;;14.49;65.13;92575.53;4721459;30;20036;-79
2023/06/17 04:10:12;;;;;;;10.35;6.22;;;;;;;14.51;64.04;92571.50;4737795;30;20575;-78
2023/06/17 04:12:41;;;;;;;12.27;6.70;;;;;;;14.53;65.75;92582.50;4721167;30;20075;-78
2023/06/17 04:15:08;;;;;;;14.93;6.32;;;;;;;14.54;65.62;92575.38;4741386;30;20438;-79
2023/06/17 04:17:36;;;;;;;11.70;6.35;;;;;;;14.51;67.48;92576.00;4725005;30;20040;-78
2023/06/17 04:20:10;;;;;;;12.38;6.50;;;;;;;14.50;68.72;92584.97;4722856;30;20109;-78
2023/06/17 04:22:37;;;;;;;13.25;5.97;;;;;;;14.46;69.74;92578.78;4723418;30;20040;-78
2023/06/17 04:25:03;;;;;;;11.05;6.15;;;;;;;14.45;70.27;92578.00;4728335;30;20044;-78
2023/06/17 04:27:29;;;;;;;11.77;6.43;;;;;;;14.48;70.60;92576.63;4721457;30;20044;-79
2023/06/17 04:29:56;;;;;;;13.50;6.20;;;;;;;14.50;71.05;92569.97;4703103;30;20419;-80
2023/06/17 04:32:26;;;;;;;10.85;6.07;;;;;;;14.54;70.83;92580.66;4726476;30;20052;-79
2023/06/17 04:34:53;;;;;;;12.90;6.25;;;;;;;14.55;71.23;92577.75;4723327;30;20135;-79
2023/06/17 04:37:20;;;;;;;12.07;6.07;;;;;;;14.57;70.73;92580.06;4709496;30;20084;-79
2023/06/17 04:39:46;;;;;;;11.20;6.40;;;;;;;14.58;70.66;92578.97;4721722;30;20094;-79
2023/06/17 04:42:18;;;;;;;12.00;5.88;;;;;;;14.62;70.73;92582.56;4720357;30;20044;-79
2023/06/17 04:44:44;;;;;;;13.32;6.47;;;;;;;14.67;71.12;92581.63;4719632;30;20127;-79
2023/06/17 04:47:11;;;;;;;10.70;5.85;;;;;;;14.63;71.76;92581.47;4740152;30;20151;-79
2023/06/17 04:49:41;;;;;;;12.95;5.72;;;;;;;14.66;70.68;92588.75;4722613;30;20040;-79
2023/06/17 04:52:11;;;;;;;11.77;6.22;;;;;;;14.72;70.65;92584.88;4726641;30;20060;-79
2023/06/17 04:54:37;;;;;;;12.30;6.43;;;;;;;14.80;70.88;92582.56;4725218;30;20132;-77
2023/06/17 04:57:04;;;;;;;11.52;5.60;;;;;;;14.87;70.30;92590.78;4740547;30;20567;-79
2023/06/17 04:59:30;;;;;;;12.18;6.88;;;;;;;14.95;69.55;92585.53;4714664;30;20055;-79
2023/06/17 05:01:58;;;;;;;11.75;6.22;;;;;;;15.05;69.71;92589.72;4710860;30;20068;-79
2023/06/17 05:04:23;;;;;;;14.25;6.75;;;;;;;15.14;71.83;92581.78;4735513;30;20044;-79
2023/06/17 05:06:49;;;;;;;10.25;6.30;;;;;;;15.19;71.72;92577.13;4720926;30;20047;-78
2023/06/17 05:09:16;;;;;;;14.15;6.97;;;;;;;15.28;71.66;92584.25;4722608;30;20040;-79
2023/06/17 05:11:42;;;;;;;11.85;6.47;;;;;;;15.32;72.79;92583.31;4708746;30;20047;-78
2023/06/17 05:14:08;;;;;;;18.30;6.93;;;;;;;15.38;74.20;92584.72;4730614;30;20036;-79
2023/06/17 05:16:34;;;;;;;10.05;6.00;;;;;;;15.46;74.77;92585.00;4737148;30;20052;-78
2023/06/17 05:19:00;;;;;;;11.80;6.35;;;;;;;15.52;74.58;92587.16;4721922;30;20087;-78
2023/06/17 05:21:27;;;;;;;12.00;6.68;;;;;;;15.57;74.02;92581.72;4718586;30;20518;-77
2023/06/17 05:23:54;;;;;;;10.82;6.13;;;;;;;15.64;72.88;92580.47;4732976;30;20048;-77
2023/06/17 05:26:21;;;;;;;11.23;6.55;;;;;;;15.72;71.49;92585.00;4718702;30;20041;-78
2023/06/17 05:28:47;;;;;;;10.57;6.15;;;;;;;15.79;70.89;92582.63;4718693;30;20577;-79
2023/06/17 05:31:12;;;;;;;10.32;6.28;;;;;;;15.89;70.07;92590.19;4716632;30;20060;-79
2023/06/17 05:33:39;;;;;;;12.48;6.30;;;;;;;15.96;69.32;92582.59;4719818;30;20041;-78
2023/06/17 05:36:05;;;;;;;12.13;6.00;;;;;;;16.09;69.20;92585.31;4717462;30;20129;-78
2023/06/17 05:38:30;;;;;;;10.20;6.60;;;;;;;16.18;68.94;92584.19;4724622;30;20060;-78
2023/06/17 05:40:56;;;;;;;10.23;5.82;;;;;;;16.27;68.11;92589.41;4739083;30;20036;-77
2023/06/17 05:43:28;;;;;;;10.50;5.90;;;;;;;16.40;68.33;92588.44;4715109;30;20056;-78
2023/06/17 05:45:55;;;;;;;9.85;6.25;;;;;;;16.85;67.17;92587.88;4716857;30;20581;-77
2023/06/17 05:48:22;;;;;;;11.43;6.00;;;;;;;17.41;64.71;92592.09;4733426;30;20087;-76
2023/06/17 05:50:47;;;;;;;13.05;6.50;;;;;;;18.02;63.22;92597.56;4736832;30;20040;-77
2023/06/17 05:53:13;;;;;;;10.55;5.93;;;;;;;18.55;60.35;92595.03;4716585;30;20055;-79
2023/06/17 05:55:39;;;;;;;9.32;5.93;;;;;;;19.03;58.78;92598.00;4716056;30;20044;-78
2023/06/17 05:58:06;;;;;;;11.00;5.93;;;;;;;19.52;58.66;92597.81;4714408;30;20763;-78
2023/06/17 06:00:33;;;;;;;10.45;5.90;;;;;;;19.89;57.64;92595.78;4715776;30;20594;-75
2023/06/17 06:02:59;;;;;;;11.93;6.97;;;;;;;20.27;57.13;92588.34;4725077;30;20063;-78
2023/06/17 06:05:25;;;;;;;10.95;6.50;;;;;;;20.59;55.27;92594.44;4720250;30;20144;-77
2023/06/17 06:07:50;;;;;;;13.02;6.28;;;;;;;20.90;54.25;92598.91;4720874;30;20040;-78
2023/06/17 06:10:20;;;;;;;11.73;6.90;;;;;;;21.29;52.66;92598.19;4720760;30;20060;-79
2023/06/17 06:12:51;;;;;;;11.65;6.90;;;;;;;21.62;53.58;92605.72;4733484;30;20444;-78
2023/06/17 06:15:17;;;;;;;12.63;7.20;;;;;;;21.91;57.33;92599.03;4718665;30;20087;-79
2023/06/17 06:17:42;;;;;;;11.00;6.75;;;;;;;22.15;57.92;92603.22;4723870;30;20056;-79
2023/06/17 06:20:08;;;;;;;15.57;6.93;;;;;;;22.06;57.33;92605.34;4731940;30;20139;-79
2023/06/17 06:22:34;;;;;;;13.10;6.85;;;;;;;22.11;57.99;92604.28;4723967;30;20079;-79
2023/06/17 06:24:59;;;;;;;12.10;7.75;;;;;;;21.73;54.19;92601.38;4711979;30;20037;-80
2023/06/17 06:27:25;;;;;;;12.95;7.22;;;;;;;21.92;54.48;92611.22;4723425;30;20044;-80
2023/06/17 06:29:51;;;;;;;13.30;7.53;;;;;;;21.92;53.94;92605.13;4735299;30;20048;-81
2023/06/17 06:32:17;;;;;;;12.00;6.80;;;;;;;21.56;58.79;92602.56;4711340;30;20049;-79
2023/06/17 06:34:45;;;;;;;13.93;6.90;;;;;;;21.35;59.20;92600.22;4720496;30;20052;-79
2023/06/17 06:37:11;;;;;;;12.15;7.35;;;;;;;20.82;59.53;92605.19;4708270;30;20304;-80
2023/06/17 06:39:37;;;;;;;12.40;7.88;;;;;;;20.59;60.28;92600.50;4720370;30;20139;-79
2023/06/17 06:42:04;;;;;;;16.13;7.32;;;;;;;20.55;64.41;92604.94;4711068;30;20127;-79
2023/06/17 06:44:44;;;;;;;13.25;6.90;;;;;;;20.36;64.78;92599.56;4718993;30;20044;-79
2023/06/17 06:47:14;;;;;;;10.40;6.80;;;;;;;20.40;64.06;92600.44;4718897;30;20472;-79
2023/06/17 06:49:40;;;;;;;11.98;7.03;;;;;;;20.21;65.08;92606.44;4716798;30;20063;-79
2023/06/17 06:52:06;;;;;;;13.00;6.97;;;;;;;19.70;66.97;92604.41;4715065;30;20048;-79
2023/06/17 06:54:32;;;;;;;14.95;7.50;;;;;;;19.88;67.90;92610.19;4726210;30;20100;-78
2023/06/17 06:56:57;;;;;;;12.20;7.32;;;;;;;19.99;66.83;92610.44;4714309;30;20067;-79
2023/06/17 06:59:24;;;;;;;15.80;7.13;;;;;;;19.88;67.28;92612.03;4720755;30;20508;-79
2023/06/17 07:01:51;;;;;;;14.27;6.88;;;;;;;19.90;67.93;92615.13;4720434;30;20037;-79
2023/06/17 07:04:20;;;;;;;15.85;7.10;;;;;;;20.08;68.44;92608.38;4727453;30;20048;-79
2023/06/17 07:06:47;;;;;;;11.93;6.93;;;;;;;20.07;66.88;92614.81;4729965;30;20028;-78
2023/06/17 07:09:17;;;;;;;12.75;7.00;;;;;;;19.98;66.77;92608.13;4729197;30;20068;-78
2023/06/17 07:11:43;;;;;;;12.68;7.40;;;;;;;20.23;67.23;92614.06;4723997;30;20129;-78
2023/06/17 07:14:08;;;;;;;14.93;6.82;;;;;;;20.48;64.72;92610.09;4731056;30;20384;-79
2023/06/17 07:16:35;;;;;;;12.38;6.65;;;;;;;20.84;65.17;92610.94;4722191;30;20420;-80
2023/06/17 07:19:02;;;;;;;14.05;6.47;;;;;;;21.08;63.40;92612.59;4720757;30;20057;-78
2023/06/17 07:21:28;;;;;;;11.70;7.15;;;;;;;20.54;65.30;92615.94;4715486;30;20102;-79
2023/06/17 07:23:54;;;;;;;12.75;7.50;;;;;;;20.49;65.51;92609.00;4741984;30;20036;-78
2023/06/17 07:26:21;;;;;;;14.10;7.25;;;;;;;20.59;65.75;92611.16;4707113;30;20514;-79
2023/06/17 07:28:50;;;;;;;12.45;7.07;;;;;;;20.66;66.14;92609.78;4738405;30;20181;-80
2023/06/17 07:31:15;;;;;;;11.70;6.68;;;;;;;20.62;65.41;92603.59;4723485;30;20050;-79
2023/06/17 07:33:41;;;;;;;14.48;7.53;;;;;;;20.82;65.64;92607.84;4718257;30;20067;-80
2023/06/17 07:36:07;;;;;;;13.98;6.80;;;;;;;20.90;64.00;92606.91;4724016;30;20665;-79
2023/06/17 07:38:36;;;;;;;12.73;7.05;;;;;;;20.96;62.73;92613.50;4722617;30;20054;-78
2023/06/17 07:41:02;;;;;;;13.27;7.22;;;;;;;20.92;64.01;92603.91;4713491;30;20676;-79
2023/06/17 07:43:27;;;;;;;16.23;6.90;;;;;;;21.04;63.59;92603.00;4742302;30;20040;-80
2023/06/17 07:45:53;;;;;;;12.93;7.50;;;;;;;21.29;62.00;92604.28;4743720;30;20041;-79
2023/06/17 07:48:19;;;;;;;11.48;7.03;;;;;;;21.31;62.21;92606.59;4737250;30;20117;-80
2023/06/17 07:50:44;;;;;;;13.57;7.20;;;;;;;21.15;63.12;92606.66;4721554;30;20534;-79
2023/06/17 07:53:10;;;;;;;12.52;6.90;;;;;;;21.05;63.33;92601.88;4739999;30;20032;-79
2023/06/17 07:55:37;;;;;;;11.63;7.10;;;;;;;20.89;61.52;92601.91;4739023;30;20052;-79
2023/06/17 07:58:03;;;;;;;12.85;6.35;;;;;;;20.74;61.48;92595.53;4742860;30;20492;-79
2023/06/17 08:00:29;;;;;;;12.18;7.13;;;;;;;20.42;62.61;92600.06;4714413;30;20067;-79
2023/06/17 08:02:55;;;;;;;12.48;6.90;;;;;;;20.66;62.02;92597.25;4724946;30;20056;-79
2023/06/17 08:05:21;;;;;;;13.18;6.57;;;;;;;20.97;60.67;92591.09;4734349;30;20036;-78
2023/06/17 08:07:47;;;;;;;12.55;7.22;;;;;;;21.28;60.63;92586.78;4738580;30;20113;-79
2023/06/17 08:10:12;;;;;;;13.00;6.72;;;;;;;21.60;60.28;92586.66;4734956;30;20040;-80
2023/06/17 08:12:38;;;;;;;14.20;7.47;;;;;;;21.40;58.04;92586.66;4735554;30;20695;-79
2023/06/17 08:15:04;;;;;;;16.67;7.18;;;;;;;21.61;60.24;92593.50;4725562;30;20072;-79
2023/06/17 08:17:29;;;;;;;12.02;7.00;;;;;;;21.39;60.79;92586.97;4718066;30;20460;-78
2023/06/17 08:19:55;;;;;;;16.60;7.10;;;;;;;21.25;60.29;92584.81;4752457;30;20177;-79
2023/06/17 08:22:22;;;;;;;15.55;7.43;;;;;;;21.31;60.14;92578.09;4751537;30;20055;-79
2023/06/17 08:24:47;;;;;;;17.98;7.25;;;;;;;21.46;60.26;92581.03;4760782;30;20101;-81
2023/06/17 08:27:13;;;;;;;11.45;6.80;;;;;;;21.27;60.10;92573.81;4759788;30;20040;-80
2023/06/17 08:29:38;;;;;;;13.02;7.30;;;;;;;21.36;58.49;92577.03;4760544;30;20035;-81
2023/06/17 08:32:04;;;;;;;12.77;7.72;;;;;;;21.63;61.17;92567.28;4767240;30;20096;-80
2023/06/17 08:34:32;;;;;;;12.95;7.03;;;;;;;21.57;58.87;92568.69;4763966;30;20040;-80
2023/06/17 08:37:03;;;;;;;11.45;6.65;;;;;;;21.57;57.27;92572.16;4761575;30;20081;-80
2023/06/17 08:39:30;;;;;;;11.70;7.05;;;;;;;21.72;57.04;92575.84;4754036;30;20055;-80
2023/06/17 08:41:56;;;;;;;16.52;7.10;;;;;;;21.91;58.87;92569.72;4746466;30;20052;-80
2023/06/17 08:44:24;;;;;;;12.40;6.53;;;;;;;21.87;53.24;92574.19;4743306;30;20115;-80
2023/06/17 08:46:51;;;;;;;11.23;7.30;;;;;;;22.15;53.45;92576.56;4754401;30;20051;-80
2023/06/17 08:49:18;;;;;;;10.43;7.07;;;;;;;22.16;55.01;92575.47;4742163;30;20056;-79
2023/06/17 08:51:48;;;;;;;12.27;7.05;;;;;;;21.98;58.26;92569.81;4758515;30;20063;-80
2023/06/17 08:54:14;;;;;;;11.93;7.63;;;;;;;21.79;54.57;92567.19;4768265;30;20522;-81
2023/06/17 08:56:40;;;;;;;12.43;6.55;;;;;;;21.94;57.49;92568.22;4745693;30;20108;-81
2023/06/17 08:59:06;;;;;;;9.80;6.32;;;;;;;22.03;50.35;92571.44;4745635;30;20533;-80
2023/06/17 09:01:32;;;;;;;11.98;6.88;;;;;;;22.11;57.83;92574.97;4739588;30;20048;-81
2023/06/17 09:03:59;;;;;;;12.75;6.72;;;;;;;22.20;50.67;92562.16;4734691;30;20100;-80
2023/06/17 09:06:27;;;;;;;10.82;6.40;;;;;;;22.36;54.19;92572.72;4754865;30;20106;-80
2023/06/17 09:08:55;;;;;;;12.20;6.93;;;;;;;22.60;59.71;92568.91;4755123;30;20043;-80
2023/06/17 09:11:29;;;;;;;11.75;6.47;;;;;;;22.56;54.13;92568.09;4737519;30;20068;-80
2023/06/17 09:13:56;;;;;;;13.93;7.63;;;;;;;22.53;55.24;92561.56;4759240;30;20116;-80
2023/06/17 09:16:26;;;;;;;11.50;6.57;;;;;;;22.76;56.33;92569.53;4745485;30;20040;-79
2023/06/17 09:18:56;;;;;;;13.77;6.90;;;;;;;22.71;54.52;92569.06;4740547;30;20059;-79
2023/06/17 09:21:24;;;;;;;12.45;6.45;;;;;;;22.80;42.37;92569.56;4756201;30;20044;-80
2023/06/17 09:23:57;;;;;;;12.77;6.15;;;;;;;22.83;41.81;92568.84;4759106;30;20078;-80
2023/06/17 09:26:33;;;;;;;9.60;5.88;;;;;;;22.94;50.20;92559.09;4757710;30;20094;-80
2023/06/17 09:29:03;;;;;;;13.82;6.93;;;;;;;;;;4762749;30;20048;-79
2023/06/17 09:31:30;;;;;;;14.45;6.35;;;;;;;22.99;42.36;92566.84;4729413;30;20097;-80
2023/06/17 09:33:58;;;;;;;9.68;5.90;;;;;;;23.12;41.81;92571.94;4767150;30;20040;-80
2023/06/17 09:36:25;;;;;;;9.20;5.72;;;;;;;23.31;46.91;92566.47;4751180;30;20044;-80
2023/06/17 09:38:52;;;;;;;10.95;7.10;;;;;;;23.52;50.13;92555.25;4756610;30;20043;-80
2023/06/17 09:41:20;;;;;;;10.23;5.80;;;;;;;23.56;40.78;92555.28;4759509;30;20153;-80
2023/06/17 09:43:53;;;;;;;9.52;5.95;;;;;;;23.63;39.79;92566.06;4761233;30;20115;-80
2023/06/17 09:46:29;;;;;;;15.00;5.72;;;;;;;23.70;39.55;92553.53;4757491;30;20036;-80
2023/06/17 09:48:58;;;;;;;12.20;5.70;;;;;;;23.71;41.89;92551.63;4759278;30;20047;-80
2023/06/17 09:51:25;;;;;;;9.43;5.70;;;;;;;23.89;42.64;92555.28;4759122;30;20052;-80
2023/06/17 09:53:52;;;;;;;10.25;6.20;;;;;;;24.07;45.31;92546.63;4758193;30;20047;-80
2023/06/17 09:56:19;;;;;;;12.93;6.40;;;;;;;24.20;47.14;92547.91;4742484;30;20044;-80
2023/06/17 09:58:45;;;;;;;10.15;6.07;;;;;;;24.34;41.61;92547.25;4764819;30;20035;-80
2023/06/17 10:01:12;;;;;;;10.15;6.45;;;;;;;24.38;41.64;92549.94;4759123;30;20040;-80
2023/06/17 10:03:39;;;;;;;12.32;5.97;;;;;;;24.68;42.38;92550.59;4754895;30;20039;-80
2023/06/17 10:06:16;;;;;;;9.13;5.93;;;;;;;24.59;35.71;92541.31;4755580;30;20043;-81
2023/06/17 10:08:47;;;;;;;12.43;6.20;;;;;;;24.66;31.91;92552.09;4757113;30;20039;-80
2023/06/17 10:11:17;;;;;;;12.23;6.60;;;;;;;24.73;35.48;92550.22;4755579;30;20069;-80
2023/06/17 10:13:46;;;;;;;12.00;5.78;;;;;;;24.90;38.74;92553.38;4755429;30;20040;-81
2023/06/17 10:16:13;;;;;;;9.02;5.43;;;;;;;24.99;36.05;92543.09;4758467;30;20070;-80
2023/06/17 10:18:44;;;;;;;11.55;5.47;;;;;;;24.85;34.40;92543.03;4759899;30;20135;-80
2023/06/17 10:21:12;;;;;;;9.82;6.38;;;;;;;24.96;36.22;92545.78;4729524;30;20035;-81
2023/06/17 10:23:39;;;;;;;9.85;6.00;;;;;;;25.02;36.83;92545.03;4756165;30;20044;-80
2023/06/17 10:26:06;;;;;;;8.10;5.63;;;;;;;24.93;39.23;92536.56;4738115;30;20051;-80
2023/06/17 10:28:57;;;;;;;8.43;5.28;;;;;;;24.68;38.93;92531.09;4756529;30;20499;-80
2023/06/17 10:31:24;;;;;;;9.20;5.95;;;;;;;24.85;38.89;92529.63;4754203;30;20512;-80
2023/06/17 10:33:51;;;;;;;11.40;4.82;;;;;;;24.98;33.16;92528.19;4741829;30;20051;-80
2023/06/17 10:36:20;;;;;;;8.13;5.32;;;;;;;24.82;38.08;92530.41;4752952;30;20124;-81
2023/06/17 10:38:54;;;;;;;10.15;5.68;;;;;;;25.00;38.49;92525.91;4756712;30;20040;-79
2023/06/17 10:41:20;;;;;;;8.90;5.57;;;;;;;25.00;38.51;92528.59;4759064;30;20032;-80
2023/06/17 10:43:45;;;;;;;9.27;5.75;;;;;;;25.01;39.35;92530.09;4744319;30;20047;-80
2023/06/17 10:46:11;;;;;;;10.60;6.55;;;;;;;25.14;39.41;92525.97;4764609;30;20130;-80
2023/06/17 10:48:36;;;;;;;12.27;5.90;;;;;;;25.22;42.49;92521.44;4759711;30;20042;-81
2023/06/17 10:51:03;;;;;;;13.23;6.15;;;;;;;25.24;41.05;92526.41;4756347;30;20373;-81
2023/06/17 10:53:31;;;;;;;11.57;6.20;;;;;;;25.31;38.77;92524.53;4749666;30;20051;-82
2023/06/17 10:56:00;;;;;;;10.57;5.55;;;;;;;25.28;40.89;92525.28;4757635;30;20101;-80
2023/06/17 10:58:35;;;;;;;10.43;5.55;;;;;;;25.18;39.74;92530.56;4749113;30;20094;-83
2023/06/17 11:01:06;;;;;;;12.45;5.72;;;;;;;25.34;41.06;92523.00;4763302;30;20499;-82
2023/06/17 11:03:32;;;;;;;13.13;6.77;;;;;;;25.44;41.75;92519.59;4744576;30;20079;-80
2023/06/17 11:06:05;;;;;;;11.63;6.78;;;;;;;25.48;40.77;92523.03;4739129;30;20513;-82
2023/06/17 11:08:32;;;;;;;15.18;6.40;;;;;;;25.45;42.25;92513.09;4743957;30;20058;-84
2023/06/17 11:11:16;;;;;;;9.50;5.72;;;;;;;25.41;36.72;92519.59;4758581;30;20403;-84
2023/06/17 11:13:43;;;;;;;12.50;6.38;;;;;;;25.20;39.57;92515.69;4754883;30;20043;-84
2023/06/17 11:16:10;;;;;;;9.80;6.03;;;;;;;25.23;39.49;92512.25;4753746;30;21274;-83
2023/06/17 11:18:41;;;;;;;9.35;5.95;;;;;;;25.13;42.15;92511.03;4738533;30;20119;-81
2023/06/17 11:21:07;;;;;;;9.93;6.37;;;;;;;25.21;39.57;92497.69;4727576;30;20032;-81
2023/06/17 11:23:35;;;;;;;9.30;5.88;;;;;;;25.41;41.08;92498.91;4740657;30;20047;-80
2023/06/17 11:26:01;;;;;;;9.10;5.50;;;;;;;25.60;39.94;92500.50;4740995;30;20660;-81
2023/06/17 11:28:27;;;;;;;10.00;5.20;;;;;;;25.69;37.16;92495.53;4736882;30;20044;-82